Terminal Aerodrome Forecast
Issued by NWS

Home | Current Version | Previous Version | Text Only | Print | Product List | Glossary On
Versions: 1 2 3 4 5 6 7 8 9 10 11
414
FTUS45 KFGZ 060520
TAFPRC
TAF
KPRC 060520Z 0606/0706 19005KT P6SM FEW250
     FM061500 VRB05KT P6SM FEW250
     FM070200 20006KT P6SM FEW250=

USA.gov is the U.S. government's official web portal to all federal, state and local government web resources and services.